sensor_id;sensor_type;location;lat;lon;timestamp;P1;durP1;ratioP1;P2;durP2;ratioP2
66487;SDS011;53304;54.550;18.526;2022-10-16T00:01:21;17.42;;;10.55;;
66487;SDS011;53304;54.550;18.526;2022-10-16T00:03:49;15.60;;;10.95;;
66487;SDS011;53304;54.550;18.526;2022-10-16T00:06:15;16.38;;;11.02;;
66487;SDS011;53304;54.550;18.526;2022-10-16T00:08:44;16.42;;;11.35;;
66487;SDS011;53304;54.550;18.526;2022-10-16T00:11:11;17.85;;;11.13;;
66487;SDS011;53304;54.550;18.526;2022-10-16T00:13:39;16.38;;;10.88;;
66487;SDS011;53304;54.550;18.526;2022-10-16T00:16:06;16.02;;;10.73;;
66487;SDS011;53304;54.550;18.526;2022-10-16T00:18:31;17.58;;;11.32;;
66487;SDS011;53304;54.550;18.526;2022-10-16T00:21:04;15.77;;;10.75;;
66487;SDS011;53304;54.550;18.526;2022-10-16T00:23:37;19.90;;;11.52;;
66487;SDS011;53304;54.550;18.526;2022-10-16T00:26:07;15.93;;;11.05;;
66487;SDS011;53304;54.550;18.526;2022-10-16T00:28:38;16.63;;;10.60;;
66487;SDS011;53304;54.550;18.526;2022-10-16T00:31:11;15.93;;;11.00;;
66487;SDS011;53304;54.550;18.526;2022-10-16T00:33:42;15.73;;;10.10;;
66487;SDS011;53304;54.550;18.526;2022-10-16T00:36:10;15.48;;;10.27;;
66487;SDS011;53304;54.550;18.526;2022-10-16T00:38:39;15.02;;;10.35;;
66487;SDS011;53304;54.550;18.526;2022-10-16T00:41:07;15.57;;;10.63;;
66487;SDS011;53304;54.550;18.526;2022-10-16T00:49:10;14.10;;;9.88;;
66487;SDS011;53304;54.550;18.526;2022-10-16T00:54:07;15.80;;;10.60;;
66487;SDS011;53304;54.550;18.526;2022-10-16T00:56:41;16.17;;;10.25;;
66487;SDS011;53304;54.550;18.526;2022-10-16T00:59:10;16.75;;;10.20;;
66487;SDS011;53304;54.550;18.526;2022-10-16T01:01:44;15.27;;;10.00;;
66487;SDS011;53304;54.550;18.526;2022-10-16T01:04:13;14.57;;;9.95;;
66487;SDS011;53304;54.550;18.526;2022-10-16T01:06:47;15.20;;;9.73;;
66487;SDS011;53304;54.550;18.526;2022-10-16T01:12:14;16.05;;;9.77;;
66487;SDS011;53304;54.550;18.526;2022-10-16T01:14:59;13.52;;;9.40;;
66487;SDS011;53304;54.550;18.526;2022-10-16T01:17:34;14.20;;;10.00;;
66487;SDS011;53304;54.550;18.526;2022-10-16T01:20:07;14.50;;;9.77;;
66487;SDS011;53304;54.550;18.526;2022-10-16T01:28:28;14.48;;;9.80;;
66487;SDS011;53304;54.550;18.526;2022-10-16T01:30:59;16.45;;;9.68;;
66487;SDS011;53304;54.550;18.526;2022-10-16T01:33:28;15.75;;;9.90;;
66487;SDS011;53304;54.550;18.526;2022-10-16T01:35:58;13.93;;;9.43;;
66487;SDS011;53304;54.550;18.526;2022-10-16T01:38:34;14.23;;;10.23;;
66487;SDS011;53304;54.550;18.526;2022-10-16T01:41:04;13.77;;;9.75;;
66487;SDS011;53304;54.550;18.526;2022-10-16T01:43:49;14.90;;;9.70;;
66487;SDS011;53304;54.550;18.526;2022-10-16T01:46:24;12.82;;;8.80;;
66487;SDS011;53304;54.550;18.526;2022-10-16T01:48:51;14.68;;;9.70;;
66487;SDS011;53304;54.550;18.526;2022-10-16T01:51:19;14.13;;;9.60;;
66487;SDS011;53304;54.550;18.526;2022-10-16T01:53:51;14.18;;;9.60;;
66487;SDS011;53304;54.550;18.526;2022-10-16T01:56:18;13.40;;;9.45;;
66487;SDS011;53304;54.550;18.526;2022-10-16T01:58:49;12.68;;;8.65;;
66487;SDS011;53304;54.550;18.526;2022-10-16T02:01:26;12.50;;;8.93;;
66487;SDS011;53304;54.550;18.526;2022-10-16T02:03:53;15.02;;;9.07;;
66487;SDS011;53304;54.550;18.526;2022-10-16T02:06:24;13.30;;;9.07;;
66487;SDS011;53304;54.550;18.526;2022-10-16T02:08:53;13.10;;;8.93;;
66487;SDS011;53304;54.550;18.526;2022-10-16T02:11:18;14.82;;;9.13;;
66487;SDS011;53304;54.550;18.526;2022-10-16T02:16:16;13.70;;;8.75;;
66487;SDS011;53304;54.550;18.526;2022-10-16T02:18:42;12.05;;;8.68;;
66487;SDS011;53304;54.550;18.526;2022-10-16T02:24:05;13.07;;;8.73;;
66487;SDS011;53304;54.550;18.526;2022-10-16T02:26:39;13.40;;;8.57;;
66487;SDS011;53304;54.550;18.526;2022-10-16T02:29:07;12.38;;;8.43;;
66487;SDS011;53304;54.550;18.526;2022-10-16T02:31:38;13.43;;;8.85;;
66487;SDS011;53304;54.550;18.526;2022-10-16T02:34:07;12.23;;;8.70;;
66487;SDS011;53304;54.550;18.526;2022-10-16T02:36:36;15.85;;;9.02;;
66487;SDS011;53304;54.550;18.526;2022-10-16T02:39:02;12.35;;;8.43;;
66487;SDS011;53304;54.550;18.526;2022-10-16T02:41:31;13.77;;;9.18;;
66487;SDS011;53304;54.550;18.526;2022-10-16T02:44:00;12.55;;;8.27;;
66487;SDS011;53304;54.550;18.526;2022-10-16T02:46:25;11.93;;;8.07;;
66487;SDS011;53304;54.550;18.526;2022-10-16T02:48:53;13.85;;;8.43;;
66487;SDS011;53304;54.550;18.526;2022-10-16T02:51:19;13.52;;;8.52;;
66487;SDS011;53304;54.550;18.526;2022-10-16T02:53:44;11.32;;;7.90;;
66487;SDS011;53304;54.550;18.526;2022-10-16T02:56:09;12.38;;;8.23;;
66487;SDS011;53304;54.550;18.526;2022-10-16T02:58:37;12.30;;;8.15;;
66487;SDS011;53304;54.550;18.526;2022-10-16T03:01:03;13.40;;;8.27;;
66487;SDS011;53304;54.550;18.526;2022-10-16T03:03:28;11.32;;;8.38;;
66487;SDS011;53304;54.550;18.526;2022-10-16T03:05:53;12.98;;;8.43;;
66487;SDS011;53304;54.550;18.526;2022-10-16T03:08:19;13.43;;;8.50;;
66487;SDS011;53304;54.550;18.526;2022-10-16T03:10:48;12.82;;;8.48;;
66487;SDS011;53304;54.550;18.526;2022-10-16T03:13:14;12.88;;;8.43;;
66487;SDS011;53304;54.550;18.526;2022-10-16T03:15:42;14.88;;;8.25;;
66487;SDS011;53304;54.550;18.526;2022-10-16T03:18:08;12.27;;;8.38;;
66487;SDS011;53304;54.550;18.526;2022-10-16T03:20:36;14.18;;;8.50;;
66487;SDS011;53304;54.550;18.526;2022-10-16T03:23:01;12.10;;;8.02;;
66487;SDS011;53304;54.550;18.526;2022-10-16T03:25:29;11.90;;;8.07;;
66487;SDS011;53304;54.550;18.526;2022-10-16T03:27:57;14.05;;;8.60;;
66487;SDS011;53304;54.550;18.526;2022-10-16T03:30:24;12.77;;;8.18;;
66487;SDS011;53304;54.550;18.526;2022-10-16T03:32:55;12.68;;;8.50;;
66487;SDS011;53304;54.550;18.526;2022-10-16T03:35:23;12.57;;;8.73;;
66487;SDS011;53304;54.550;18.526;2022-10-16T03:37:51;14.40;;;8.85;;
66487;SDS011;53304;54.550;18.526;2022-10-16T03:40:17;12.98;;;8.23;;
66487;SDS011;53304;54.550;18.526;2022-10-16T03:42:46;12.40;;;8.45;;
66487;SDS011;53304;54.550;18.526;2022-10-16T03:45:11;13.73;;;8.57;;
66487;SDS011;53304;54.550;18.526;2022-10-16T03:47:37;13.63;;;7.93;;
66487;SDS011;53304;54.550;18.526;2022-10-16T03:50:05;12.75;;;8.10;;
66487;SDS011;53304;54.550;18.526;2022-10-16T03:52:31;12.10;;;8.30;;
66487;SDS011;53304;54.550;18.526;2022-10-16T03:55:04;12.18;;;8.00;;
66487;SDS011;53304;54.550;18.526;2022-10-16T03:57:29;13.57;;;8.20;;
66487;SDS011;53304;54.550;18.526;2022-10-16T03:59:55;14.50;;;8.32;;
66487;SDS011;53304;54.550;18.526;2022-10-16T04:02:25;12.30;;;8.00;;
66487;SDS011;53304;54.550;18.526;2022-10-16T04:04:50;11.90;;;7.78;;
66487;SDS011;53304;54.550;18.526;2022-10-16T04:07:16;12.70;;;8.27;;
66487;SDS011;53304;54.550;18.526;2022-10-16T04:09:41;13.32;;;8.45;;
66487;SDS011;53304;54.550;18.526;2022-10-16T04:12:07;12.38;;;7.95;;
66487;SDS011;53304;54.550;18.526;2022-10-16T04:14:35;16.08;;;9.23;;
66487;SDS011;53304;54.550;18.526;2022-10-16T04:17:00;13.52;;;8.10;;
66487;SDS011;53304;54.550;18.526;2022-10-16T04:19:28;12.00;;;8.15;;
66487;SDS011;53304;54.550;18.526;2022-10-16T04:21:53;12.95;;;8.02;;
66487;SDS011;53304;54.550;18.526;2022-10-16T04:24:19;14.23;;;8.73;;
66487;SDS011;53304;54.550;18.526;2022-10-16T04:26:46;12.43;;;7.90;;
66487;SDS011;53304;54.550;18.526;2022-10-16T04:29:12;11.13;;;7.93;;
66487;SDS011;53304;54.550;18.526;2022-10-16T04:31:37;12.63;;;8.50;;
66487;SDS011;53304;54.550;18.526;2022-10-16T04:34:07;13.32;;;8.45;;
66487;SDS011;53304;54.550;18.526;2022-10-16T04:36:33;12.55;;;8.20;;
66487;SDS011;53304;54.550;18.526;2022-10-16T04:38:58;11.88;;;8.27;;
66487;SDS011;53304;54.550;18.526;2022-10-16T04:41:26;14.75;;;8.20;;
66487;SDS011;53304;54.550;18.526;2022-10-16T04:43:54;12.45;;;8.45;;
66487;SDS011;53304;54.550;18.526;2022-10-16T04:46:19;11.48;;;7.75;;
66487;SDS011;53304;54.550;18.526;2022-10-16T04:48:47;11.77;;;8.05;;
66487;SDS011;53304;54.550;18.526;2022-10-16T04:51:15;10.70;;;7.45;;
66487;SDS011;53304;54.550;18.526;2022-10-16T04:53:40;13.45;;;8.20;;
66487;SDS011;53304;54.550;18.526;2022-10-16T04:56:08;13.18;;;7.97;;
66487;SDS011;53304;54.550;18.526;2022-10-16T04:58:36;13.15;;;7.88;;
66487;SDS011;53304;54.550;18.526;2022-10-16T05:01:03;11.85;;;8.23;;
66487;SDS011;53304;54.550;18.526;2022-10-16T05:03:29;11.88;;;7.72;;
66487;SDS011;53304;54.550;18.526;2022-10-16T05:05:54;10.80;;;7.45;;
66487;SDS011;53304;54.550;18.526;2022-10-16T05:08:20;12.48;;;8.07;;
66487;SDS011;53304;54.550;18.526;2022-10-16T05:10:45;12.05;;;7.55;;
66487;SDS011;53304;54.550;18.526;2022-10-16T05:13:13;11.07;;;7.40;;
66487;SDS011;53304;54.550;18.526;2022-10-16T05:15:41;14.18;;;7.38;;
66487;SDS011;53304;54.550;18.526;2022-10-16T05:18:06;10.77;;;7.15;;
66487;SDS011;53304;54.550;18.526;2022-10-16T05:20:31;11.20;;;7.35;;
66487;SDS011;53304;54.550;18.526;2022-10-16T05:22:57;10.93;;;7.43;;
66487;SDS011;53304;54.550;18.526;2022-10-16T05:25:22;13.23;;;7.50;;
66487;SDS011;53304;54.550;18.526;2022-10-16T05:27:51;10.82;;;7.40;;
66487;SDS011;53304;54.550;18.526;2022-10-16T05:30:19;10.30;;;7.05;;
66487;SDS011;53304;54.550;18.526;2022-10-16T05:32:48;15.13;;;7.28;;
66487;SDS011;53304;54.550;18.526;2022-10-16T05:35:17;11.93;;;7.40;;
66487;SDS011;53304;54.550;18.526;2022-10-16T05:37:45;10.30;;;7.03;;
66487;SDS011;53304;54.550;18.526;2022-10-16T05:40:14;12.57;;;7.20;;
66487;SDS011;53304;54.550;18.526;2022-10-16T05:42:40;11.80;;;7.60;;
66487;SDS011;53304;54.550;18.526;2022-10-16T05:45:06;13.90;;;7.47;;
66487;SDS011;53304;54.550;18.526;2022-10-16T05:47:32;14.15;;;7.15;;
66487;SDS011;53304;54.550;18.526;2022-10-16T05:50:00;12.32;;;6.95;;
66487;SDS011;53304;54.550;18.526;2022-10-16T05:52:30;12.23;;;7.47;;
66487;SDS011;53304;54.550;18.526;2022-10-16T05:54:56;11.45;;;6.97;;
66487;SDS011;53304;54.550;18.526;2022-10-16T05:57:21;12.57;;;6.85;;
66487;SDS011;53304;54.550;18.526;2022-10-16T05:59:47;12.10;;;7.53;;
66487;SDS011;53304;54.550;18.526;2022-10-16T06:02:15;11.50;;;6.68;;
66487;SDS011;53304;54.550;18.526;2022-10-16T06:04:41;11.85;;;7.10;;
66487;SDS011;53304;54.550;18.526;2022-10-16T06:07:06;10.48;;;7.15;;
66487;SDS011;53304;54.550;18.526;2022-10-16T06:09:32;12.23;;;6.78;;
66487;SDS011;53304;54.550;18.526;2022-10-16T06:11:57;17.90;;;7.00;;
66487;SDS011;53304;54.550;18.526;2022-10-16T06:14:25;10.77;;;7.20;;
66487;SDS011;53304;54.550;18.526;2022-10-16T06:16:55;11.65;;;7.15;;
66487;SDS011;53304;54.550;18.526;2022-10-16T06:19:20;13.80;;;7.32;;
66487;SDS011;53304;54.550;18.526;2022-10-16T06:21:46;15.80;;;7.70;;
66487;SDS011;53304;54.550;18.526;2022-10-16T06:24:11;16.73;;;7.45;;
66487;SDS011;53304;54.550;18.526;2022-10-16T06:26:39;15.00;;;7.28;;
66487;SDS011;53304;54.550;18.526;2022-10-16T06:29:04;10.23;;;6.80;;
66487;SDS011;53304;54.550;18.526;2022-10-16T06:31:32;21.95;;;7.90;;
66487;SDS011;53304;54.550;18.526;2022-10-16T06:33:58;10.60;;;6.95;;
66487;SDS011;53304;54.550;18.526;2022-10-16T06:36:27;15.27;;;7.13;;
66487;SDS011;53304;54.550;18.526;2022-10-16T06:38:52;11.90;;;7.05;;
66487;SDS011;53304;54.550;18.526;2022-10-16T06:41:21;10.40;;;7.10;;
66487;SDS011;53304;54.550;18.526;2022-10-16T06:43:49;14.80;;;7.13;;
66487;SDS011;53304;54.550;18.526;2022-10-16T06:46:18;11.05;;;7.97;;
66487;SDS011;53304;54.550;18.526;2022-10-16T06:48:47;13.05;;;8.13;;
66487;SDS011;53304;54.550;18.526;2022-10-16T06:51:17;15.20;;;10.18;;
66487;SDS011;53304;54.550;18.526;2022-10-16T06:53:44;18.50;;;13.32;;
66487;SDS011;53304;54.550;18.526;2022-10-16T06:56:16;25.77;;;15.18;;
66487;SDS011;53304;54.550;18.526;2022-10-16T06:58:43;21.35;;;13.88;;
66487;SDS011;53304;54.550;18.526;2022-10-16T07:01:09;29.15;;;18.20;;
66487;SDS011;53304;54.550;18.526;2022-10-16T07:03:37;30.65;;;20.90;;
66487;SDS011;53304;54.550;18.526;2022-10-16T07:06:09;35.95;;;21.23;;
66487;SDS011;53304;54.550;18.526;2022-10-16T07:08:37;31.75;;;21.30;;
66487;SDS011;53304;54.550;18.526;2022-10-16T07:11:04;33.45;;;20.50;;
66487;SDS011;53304;54.550;18.526;2022-10-16T07:13:35;34.25;;;21.83;;
66487;SDS011;53304;54.550;18.526;2022-10-16T07:16:05;29.60;;;21.02;;
66487;SDS011;53304;54.550;18.526;2022-10-16T07:18:35;31.75;;;21.50;;
66487;SDS011;53304;54.550;18.526;2022-10-16T07:21:05;32.65;;;20.65;;
66487;SDS011;53304;54.550;18.526;2022-10-16T07:23:31;29.40;;;19.70;;
66487;SDS011;53304;54.550;18.526;2022-10-16T07:25:59;28.25;;;19.52;;
66487;SDS011;53304;54.550;18.526;2022-10-16T07:28:24;29.85;;;19.52;;
66487;SDS011;53304;54.550;18.526;2022-10-16T07:30:50;27.10;;;19.15;;
66487;SDS011;53304;54.550;18.526;2022-10-16T07:33:17;30.85;;;19.48;;
66487;SDS011;53304;54.550;18.526;2022-10-16T07:35:50;29.75;;;18.48;;
66487;SDS011;53304;54.550;18.526;2022-10-16T07:38:18;26.38;;;17.23;;
66487;SDS011;53304;54.550;18.526;2022-10-16T07:40:44;27.67;;;17.45;;
66487;SDS011;53304;54.550;18.526;2022-10-16T07:43:12;29.85;;;17.50;;
66487;SDS011;53304;54.550;18.526;2022-10-16T07:45:46;26.88;;;16.35;;
66487;SDS011;53304;54.550;18.526;2022-10-16T07:48:15;28.45;;;17.50;;
66487;SDS011;53304;54.550;18.526;2022-10-16T07:50:43;26.65;;;17.38;;
66487;SDS011;53304;54.550;18.526;2022-10-16T07:53:14;27.27;;;16.70;;
66487;SDS011;53304;54.550;18.526;2022-10-16T07:55:41;27.10;;;16.30;;
66487;SDS011;53304;54.550;18.526;2022-10-16T07:58:10;25.65;;;16.08;;
66487;SDS011;53304;54.550;18.526;2022-10-16T08:00:38;24.23;;;15.50;;
66487;SDS011;53304;54.550;18.526;2022-10-16T08:03:03;22.20;;;15.20;;
66487;SDS011;53304;54.550;18.526;2022-10-16T08:05:31;24.60;;;15.15;;
66487;SDS011;53304;54.550;18.526;2022-10-16T08:08:02;24.42;;;14.85;;
66487;SDS011;53304;54.550;18.526;2022-10-16T08:10:28;22.25;;;14.75;;
66487;SDS011;53304;54.550;18.526;2022-10-16T08:12:56;23.00;;;14.32;;
66487;SDS011;53304;54.550;18.526;2022-10-16T08:15:24;22.00;;;13.65;;
66487;SDS011;53304;54.550;18.526;2022-10-16T08:18:00;22.00;;;14.80;;
66487;SDS011;53304;54.550;18.526;2022-10-16T08:20:27;26.80;;;14.35;;
66487;SDS011;53304;54.550;18.526;2022-10-16T08:22:56;19.92;;;13.30;;
66487;SDS011;53304;54.550;18.526;2022-10-16T08:25:22;21.85;;;13.57;;
66487;SDS011;53304;54.550;18.526;2022-10-16T08:27:51;20.05;;;12.77;;
66487;SDS011;53304;54.550;18.526;2022-10-16T08:30:17;21.17;;;12.77;;
66487;SDS011;53304;54.550;18.526;2022-10-16T08:32:43;22.27;;;13.00;;
66487;SDS011;53304;54.550;18.526;2022-10-16T08:35:09;20.80;;;12.38;;
66487;SDS011;53304;54.550;18.526;2022-10-16T08:37:36;20.75;;;12.88;;
66487;SDS011;53304;54.550;18.526;2022-10-16T08:40:02;21.35;;;12.63;;
66487;SDS011;53304;54.550;18.526;2022-10-16T08:48:15;17.55;;;11.48;;
66487;SDS011;53304;54.550;18.526;2022-10-16T08:50:45;18.73;;;12.30;;
66487;SDS011;53304;54.550;18.526;2022-10-16T08:53:18;18.60;;;11.27;;
66487;SDS011;53304;54.550;18.526;2022-10-16T08:55:52;15.85;;;11.20;;
66487;SDS011;53304;54.550;18.526;2022-10-16T08:58:19;17.63;;;10.98;;
66487;SDS011;53304;54.550;18.526;2022-10-16T09:00:47;17.10;;;11.02;;
66487;SDS011;53304;54.550;18.526;2022-10-16T09:17:37;16.45;;;10.05;;
66487;SDS011;53304;54.550;18.526;2022-10-16T09:20:51;17.03;;;9.73;;
66487;SDS011;53304;54.550;18.526;2022-10-16T09:23:30;16.17;;;9.68;;
66487;SDS011;53304;54.550;18.526;2022-10-16T09:25:58;16.48;;;9.75;;
66487;SDS011;53304;54.550;18.526;2022-10-16T09:28:23;16.00;;;9.75;;
66487;SDS011;53304;54.550;18.526;2022-10-16T09:30:49;16.17;;;9.75;;
66487;SDS011;53304;54.550;18.526;2022-10-16T09:33:19;16.35;;;9.82;;
66487;SDS011;53304;54.550;18.526;2022-10-16T09:35:52;15.93;;;8.98;;
66487;SDS011;53304;54.550;18.526;2022-10-16T09:40:49;14.98;;;9.48;;
66487;SDS011;53304;54.550;18.526;2022-10-16T09:43:22;14.32;;;8.88;;
66487;SDS011;53304;54.550;18.526;2022-10-16T09:48:24;14.17;;;9.07;;
66487;SDS011;53304;54.550;18.526;2022-10-16T09:51:00;17.30;;;9.18;;
66487;SDS011;53304;54.550;18.526;2022-10-16T09:53:40;16.67;;;9.07;;
66487;SDS011;53304;54.550;18.526;2022-10-16T09:56:09;19.58;;;9.77;;
66487;SDS011;53304;54.550;18.526;2022-10-16T09:58:35;18.55;;;9.80;;
66487;SDS011;53304;54.550;18.526;2022-10-16T10:01:04;19.65;;;9.38;;
66487;SDS011;53304;54.550;18.526;2022-10-16T10:03:42;22.55;;;9.15;;
66487;SDS011;53304;54.550;18.526;2022-10-16T10:06:28;20.20;;;9.18;;
66487;SDS011;53304;54.550;18.526;2022-10-16T10:14:15;19.65;;;10.23;;
66487;SDS011;53304;54.550;18.526;2022-10-16T10:16:46;19.95;;;10.00;;
66487;SDS011;53304;54.550;18.526;2022-10-16T10:19:22;15.77;;;8.88;;
66487;SDS011;53304;54.550;18.526;2022-10-16T10:21:49;19.20;;;9.45;;
66487;SDS011;53304;54.550;18.526;2022-10-16T10:24:16;18.83;;;9.98;;
66487;SDS011;53304;54.550;18.526;2022-10-16T10:27:00;16.85;;;9.52;;
66487;SDS011;53304;54.550;18.526;2022-10-16T10:32:28;17.52;;;8.80;;
66487;SDS011;53304;54.550;18.526;2022-10-16T10:35:15;20.75;;;9.02;;
66487;SDS011;53304;54.550;18.526;2022-10-16T10:45:48;15.45;;;8.63;;
66487;SDS011;53304;54.550;18.526;2022-10-16T10:58:49;13.85;;;8.10;;
66487;SDS011;53304;54.550;18.526;2022-10-16T11:07:50;14.23;;;7.97;;
66487;SDS011;53304;54.550;18.526;2022-10-16T11:10:25;14.60;;;8.10;;
66487;SDS011;53304;54.550;18.526;2022-10-16T11:12:58;13.32;;;7.38;;
66487;SDS011;53304;54.550;18.526;2022-10-16T11:15:32;12.60;;;7.85;;
66487;SDS011;53304;54.550;18.526;2022-10-16T11:18:08;12.48;;;7.97;;
66487;SDS011;53304;54.550;18.526;2022-10-16T11:20:56;11.30;;;7.57;;
66487;SDS011;53304;54.550;18.526;2022-10-16T11:23:30;12.35;;;7.57;;
66487;SDS011;53304;54.550;18.526;2022-10-16T11:26:08;12.57;;;7.70;;
66487;SDS011;53304;54.550;18.526;2022-10-16T11:28:41;12.45;;;7.68;;
66487;SDS011;53304;54.550;18.526;2022-10-16T11:34:02;13.23;;;7.70;;
66487;SDS011;53304;54.550;18.526;2022-10-16T11:49:32;12.95;;;7.75;;
66487;SDS011;53304;54.550;18.526;2022-10-16T11:54:45;11.73;;;7.40;;
66487;SDS011;53304;54.550;18.526;2022-10-16T11:57:18;13.73;;;8.23;;
66487;SDS011;53304;54.550;18.526;2022-10-16T12:02:34;12.88;;;7.55;;
66487;SDS011;53304;54.550;18.526;2022-10-16T12:05:12;14.95;;;7.63;;
66487;SDS011;53304;54.550;18.526;2022-10-16T12:10:41;15.02;;;7.82;;
66487;SDS011;53304;54.550;18.526;2022-10-16T12:15:52;13.32;;;7.38;;
66487;SDS011;53304;54.550;18.526;2022-10-16T12:18:41;15.95;;;8.07;;
66487;SDS011;53304;54.550;18.526;2022-10-16T12:21:13;13.85;;;7.32;;
66487;SDS011;53304;54.550;18.526;2022-10-16T12:23:51;11.27;;;7.20;;
66487;SDS011;53304;54.550;18.526;2022-10-16T12:26:27;11.35;;;7.15;;
66487;SDS011;53304;54.550;18.526;2022-10-16T12:28:54;10.85;;;7.15;;
66487;SDS011;53304;54.550;18.526;2022-10-16T12:31:20;9.40;;;6.72;;
66487;SDS011;53304;54.550;18.526;2022-10-16T12:36:27;11.52;;;6.40;;
66487;SDS011;53304;54.550;18.526;2022-10-16T12:38:59;11.95;;;6.60;;
66487;SDS011;53304;54.550;18.526;2022-10-16T12:41:32;9.70;;;6.63;;
66487;SDS011;53304;54.550;18.526;2022-10-16T12:43:59;10.75;;;6.38;;
66487;SDS011;53304;54.550;18.526;2022-10-16T12:49:04;10.20;;;6.55;;
66487;SDS011;53304;54.550;18.526;2022-10-16T12:51:49;9.80;;;6.20;;
66487;SDS011;53304;54.550;18.526;2022-10-16T12:57:03;9.07;;;6.22;;
66487;SDS011;53304;54.550;18.526;2022-10-16T13:10:54;7.97;;;5.65;;
66487;SDS011;53304;54.550;18.526;2022-10-16T13:19:08;16.15;;;6.13;;
66487;SDS011;53304;54.550;18.526;2022-10-16T13:29:52;9.73;;;5.72;;
66487;SDS011;53304;54.550;18.526;2022-10-16T13:32:21;11.05;;;5.78;;
66487;SDS011;53304;54.550;18.526;2022-10-16T13:34:48;9.40;;;5.60;;
66487;SDS011;53304;54.550;18.526;2022-10-16T13:37:20;11.68;;;5.75;;
66487;SDS011;53304;54.550;18.526;2022-10-16T13:39:48;10.35;;;5.90;;
66487;SDS011;53304;54.550;18.526;2022-10-16T13:42:24;10.07;;;5.57;;
66487;SDS011;53304;54.550;18.526;2022-10-16T13:44:53;9.27;;;5.88;;
66487;SDS011;53304;54.550;18.526;2022-10-16T13:47:25;8.25;;;5.53;;
66487;SDS011;53304;54.550;18.526;2022-10-16T13:50:25;10.75;;;5.60;;
66487;SDS011;53304;54.550;18.526;2022-10-16T13:52:44;9.68;;;5.45;;
66487;SDS011;53304;54.550;18.526;2022-10-16T13:55:15;9.15;;;5.47;;
66487;SDS011;53304;54.550;18.526;2022-10-16T13:57:43;7.80;;;5.40;;
66487;SDS011;53304;54.550;18.526;2022-10-16T14:02:49;8.20;;;5.25;;
66487;SDS011;53304;54.550;18.526;2022-10-16T14:05:16;9.15;;;5.28;;
66487;SDS011;53304;54.550;18.526;2022-10-16T14:07:47;7.82;;;5.13;;
66487;SDS011;53304;54.550;18.526;2022-10-16T14:10:19;8.00;;;5.30;;
66487;SDS011;53304;54.550;18.526;2022-10-16T14:12:58;7.13;;;4.78;;
66487;SDS011;53304;54.550;18.526;2022-10-16T14:15:29;8.65;;;5.28;;
66487;SDS011;53304;54.550;18.526;2022-10-16T14:17:55;9.88;;;5.10;;
66487;SDS011;53304;54.550;18.526;2022-10-16T14:20:24;10.45;;;5.40;;
66487;SDS011;53304;54.550;18.526;2022-10-16T14:28:35;7.65;;;4.97;;
66487;SDS011;53304;54.550;18.526;2022-10-16T14:33:52;7.97;;;5.20;;
66487;SDS011;53304;54.550;18.526;2022-10-16T14:36:20;8.30;;;5.15;;
66487;SDS011;53304;54.550;18.526;2022-10-16T14:41:43;9.20;;;5.22;;
66487;SDS011;53304;54.550;18.526;2022-10-16T14:44:14;9.57;;;4.85;;
66487;SDS011;53304;54.550;18.526;2022-10-16T14:46:41;7.68;;;5.10;;
66487;SDS011;53304;54.550;18.526;2022-10-16T14:51:39;7.90;;;5.00;;
66487;SDS011;53304;54.550;18.526;2022-10-16T14:54:09;9.15;;;5.00;;
66487;SDS011;53304;54.550;18.526;2022-10-16T14:56:50;7.45;;;4.75;;
66487;SDS011;53304;54.550;18.526;2022-10-16T14:59:19;9.10;;;5.32;;
66487;SDS011;53304;54.550;18.526;2022-10-16T15:01:59;8.55;;;4.57;;
66487;SDS011;53304;54.550;18.526;2022-10-16T15:04:24;7.55;;;4.82;;
66487;SDS011;53304;54.550;18.526;2022-10-16T15:06:52;7.03;;;4.78;;
66487;SDS011;53304;54.550;18.526;2022-10-16T15:09:17;7.68;;;5.18;;
66487;SDS011;53304;54.550;18.526;2022-10-16T15:11:43;7.38;;;4.80;;
66487;SDS011;53304;54.550;18.526;2022-10-16T15:14:11;7.22;;;4.72;;
66487;SDS011;53304;54.550;18.526;2022-10-16T15:16:39;6.35;;;4.82;;
66487;SDS011;53304;54.550;18.526;2022-10-16T15:19:07;8.15;;;4.90;;
66487;SDS011;53304;54.550;18.526;2022-10-16T15:21:35;7.57;;;5.13;;
66487;SDS011;53304;54.550;18.526;2022-10-16T15:24:03;8.20;;;5.07;;
66487;SDS011;53304;54.550;18.526;2022-10-16T15:26:33;10.68;;;5.50;;
66487;SDS011;53304;54.550;18.526;2022-10-16T15:28:58;8.50;;;5.40;;
66487;SDS011;53304;54.550;18.526;2022-10-16T15:31:24;7.20;;;4.88;;
66487;SDS011;53304;54.550;18.526;2022-10-16T15:33:50;8.00;;;5.45;;
66487;SDS011;53304;54.550;18.526;2022-10-16T15:36:24;11.43;;;5.80;;
66487;SDS011;53304;54.550;18.526;2022-10-16T15:38:56;8.15;;;5.50;;
66487;SDS011;53304;54.550;18.526;2022-10-16T15:41:21;8.25;;;5.20;;
66487;SDS011;53304;54.550;18.526;2022-10-16T15:43:50;7.35;;;4.95;;
66487;SDS011;53304;54.550;18.526;2022-10-16T15:46:20;10.93;;;5.43;;
66487;SDS011;53304;54.550;18.526;2022-10-16T15:48:50;7.95;;;5.50;;
66487;SDS011;53304;54.550;18.526;2022-10-16T15:51:18;8.40;;;5.40;;
66487;SDS011;53304;54.550;18.526;2022-10-16T15:53:49;8.18;;;5.32;;
66487;SDS011;53304;54.550;18.526;2022-10-16T15:56:18;10.50;;;6.00;;
66487;SDS011;53304;54.550;18.526;2022-10-16T15:58:47;12.68;;;5.53;;
66487;SDS011;53304;54.550;18.526;2022-10-16T16:01:13;9.55;;;5.78;;
66487;SDS011;53304;54.550;18.526;2022-10-16T16:03:38;9.27;;;5.55;;
66487;SDS011;53304;54.550;18.526;2022-10-16T16:06:10;10.38;;;5.47;;
66487;SDS011;53304;54.550;18.526;2022-10-16T16:08:36;11.55;;;5.57;;
66487;SDS011;53304;54.550;18.526;2022-10-16T16:11:09;12.15;;;5.90;;
66487;SDS011;53304;54.550;18.526;2022-10-16T16:13:36;9.32;;;5.78;;
66487;SDS011;53304;54.550;18.526;2022-10-16T16:16:11;11.52;;;5.82;;
66487;SDS011;53304;54.550;18.526;2022-10-16T16:18:40;10.13;;;5.50;;
66487;SDS011;53304;54.550;18.526;2022-10-16T16:21:06;12.75;;;6.18;;
66487;SDS011;53304;54.550;18.526;2022-10-16T16:23:34;11.35;;;5.35;;
66487;SDS011;53304;54.550;18.526;2022-10-16T16:26:42;10.65;;;5.90;;
66487;SDS011;53304;54.550;18.526;2022-10-16T16:28:51;11.43;;;5.93;;
66487;SDS011;53304;54.550;18.526;2022-10-16T16:31:17;12.18;;;5.97;;
66487;SDS011;53304;54.550;18.526;2022-10-16T16:33:42;13.15;;;5.80;;
66487;SDS011;53304;54.550;18.526;2022-10-16T16:36:08;11.90;;;5.93;;
66487;SDS011;53304;54.550;18.526;2022-10-16T16:38:38;13.02;;;5.78;;
66487;SDS011;53304;54.550;18.526;2022-10-16T16:41:23;11.32;;;5.80;;
66487;SDS011;53304;54.550;18.526;2022-10-16T16:43:53;11.50;;;6.22;;
66487;SDS011;53304;54.550;18.526;2022-10-16T16:46:19;17.77;;;6.60;;
66487;SDS011;53304;54.550;18.526;2022-10-16T16:48:45;15.73;;;6.28;;
66487;SDS011;53304;54.550;18.526;2022-10-16T16:51:18;17.15;;;6.90;;
66487;SDS011;53304;54.550;18.526;2022-10-16T16:53:45;16.02;;;6.32;;
66487;SDS011;53304;54.550;18.526;2022-10-16T16:56:12;18.45;;;6.43;;
66487;SDS011;53304;54.550;18.526;2022-10-16T16:58:37;12.27;;;6.15;;
66487;SDS011;53304;54.550;18.526;2022-10-16T17:01:06;16.38;;;6.20;;
66487;SDS011;53304;54.550;18.526;2022-10-16T17:03:32;13.85;;;6.25;;
66487;SDS011;53304;54.550;18.526;2022-10-16T17:06:00;16.02;;;6.65;;
66487;SDS011;53304;54.550;18.526;2022-10-16T17:08:27;15.02;;;6.53;;
66487;SDS011;53304;54.550;18.526;2022-10-16T17:10:55;15.45;;;6.28;;